CLT TRACON Summary / KCLT TAF
CLT TRACON Summary:
A weak upper-level system will increase chances for light showers over the mountains this afternoon and evening. Expect CLT to remain VFR with FEW/SCT040-050 clouds developing by 18-20z. Surface winds will be variable from the southwest to northwest at 3-5kts and frequently calm, increasing to 5-10kts from the west to northwest by 17-18z and more solid from the northwest at 7-12kts with 17-22kts gusts by 19-20z. Expect LGT ocnl MOD turbulence below 100 in the TRACON airspace.

Updated:10/21/2014 12:14 PM
CLT Terminal Aerodrome Forecast:

FTUS42 KGSP 212000 AAA
TAFCLT
TAF AMD
KCLT 212058Z 2121/2218 30008G16KT P6SM SCT070
     FM220000 34008KT P6SM SKC=
CLT TRACON Area Remark:
NONE.
Convective Gate Forecast / Collaborative Convective Forecast Product / Vertical Wind Profile
Convective Gate Forecast
SIGMETS/ Southeast Radar & Satellite Loops (click on image to enlarge)

Southeast Radar Loop

 



USA.gov is the U.S. government's official web portal to all federal, state and local government web resources and services.